Time;durP1;ratioP1;P1;durP2;ratioP2;P2;SDS_P1;SDS_P2;PMS_P1;PMS_P2;Temp;Humidity;BMP_temperature;BMP_pressure;BME280_temperature;BME280_humidity;BME280_pressure;Samples;Min_cycle;Max_cycle;Signal;HPM_P1;HPM_P2
2021/04/04 00:00:01;;;;;;;22.02;6.15;;;;;;;;;;5094038;28;20035;-67
2021/04/04 00:02:39;;;;;;;27.80;5.90;;;;;;;;;;5111971;28;20043;-67
2021/04/04 00:05:08;;;;;;;18.50;5.28;;;9.80;48.30;;;;;;5112028;28;20051;-67
2021/04/04 00:07:39;;;;;;;20.15;5.72;;;9.60;49.10;;;;;;5102695;28;20050;-68
2021/04/04 00:10:08;;;;;;;32.10;8.15;;;9.70;49.30;;;;;;5098169;28;20506;-66
2021/04/04 00:12:35;;;;;;;21.58;6.05;;;9.90;48.70;;;;;;5102099;28;20125;-66
2021/04/04 00:15:04;;;;;;;19.55;5.45;;;9.90;48.50;;;;;;5102646;28;20071;-67
2021/04/04 00:17:31;;;;;;;27.13;6.93;;;;;;;;;;5090462;28;20382;-66
2021/04/04 00:19:58;;;;;;;23.27;5.60;;;;;;;;;;5104923;28;20177;-67
2021/04/04 00:22:26;;;;;;;24.25;5.80;;;;;;;;;;5094413;28;20067;-68
2021/04/04 00:24:53;;;;;;;25.30;7.03;;;;;;;;;;5090191;28;20039;-66
2021/04/04 00:27:24;;;;;;;25.80;5.60;;;;;;;;;;5101828;28;20489;-67
2021/04/04 00:29:52;;;;;;;25.33;6.22;;;;;;;;;;5106402;28;20036;-69
2021/04/04 00:32:19;;;;;;;24.73;5.95;;;;;;;;;;5110994;28;20979;-67
2021/04/04 00:34:46;;;;;;;21.35;5.75;;;;;;;;;;5094496;28;20417;-66
2021/04/04 00:37:13;;;;;;;25.33;6.30;;;;;;;;;;5105706;28;20040;-67
2021/04/04 00:39:40;;;;;;;27.83;6.00;;;;;;;;;;5096781;28;20046;-67
2021/04/04 00:42:07;;;;;;;;;;;9.90;48.50;;;;;;5114316;28;20077;-67
2021/04/04 00:44:33;;;;;;;;;;;9.50;49.30;;;;;;5077483;28;20005;-69
2021/04/04 00:47:00;;;;;;;;;;;9.30;50.30;;;;;;5103280;28;19931;-68
2021/04/04 00:49:27;;;;;;;22.25;5.93;;;;;;;;;;5109266;28;19964;-66
2021/04/04 00:51:54;;;;;;;25.63;6.20;;;;;;;;;;5086872;28;20043;-68
2021/04/04 00:54:21;;;;;;;22.90;5.68;;;;;;;;;;5112549;28;20066;-63
2021/04/04 00:56:48;;;;;;;30.42;6.57;;;;;;;;;;5095428;28;20062;-65
2021/04/04 00:59:15;;;;;;;15.98;6.10;;;;;;;;;;5094087;28;20048;-68
2021/04/04 01:01:46;;;;;;;24.33;5.85;;;9.70;49.60;;;;;;5075347;28;20512;-65
2021/04/04 01:04:13;;;;;;;24.63;5.70;;;;;;;;;;5095435;28;20047;-66
2021/04/04 01:06:40;;;;;;;19.05;5.97;;;;;;;;;;5073944;28;20059;-67
2021/04/04 01:09:07;;;;;;;37.53;7.15;;;;;;;;;;5094324;28;20052;-66
2021/04/04 01:11:50;;;;;;;30.83;5.95;;;9.60;50.30;;;;;;5092908;28;20052;-65
2021/04/04 01:14:26;;;;;;;27.75;6.18;;;9.80;49.60;;;;;;5092253;28;20048;-66
2021/04/04 01:17:02;;;;;;;15.07;5.38;;;10.00;49.20;;;;;;5094713;28;20068;-66
2021/04/04 01:20:04;;;;;;;29.73;6.10;;;10.20;48.10;;;;;;5094257;28;20102;-67
2021/04/04 01:22:53;;;;;;;18.88;5.88;;;10.20;48.20;;;;;;5057090;28;20494;-66
2021/04/04 01:25:34;;;;;;;28.33;5.82;;;10.30;47.80;;;;;;5092640;28;20418;-66
2021/04/04 01:28:10;;;;;;;34.55;6.60;;;10.30;47.60;;;;;;5080793;28;20044;-67
2021/04/04 01:30:40;;;;;;;17.10;5.97;;;10.40;47.70;;;;;;5093221;28;20089;-65
2021/04/04 01:33:10;;;;;;;22.25;5.30;;;10.40;47.30;;;;;;5089636;28;20052;-66
2021/04/04 01:35:40;;;;;;;22.52;6.07;;;10.30;47.70;;;;;;5094472;28;20504;-65
2021/04/04 01:38:13;;;;;;;28.05;6.32;;;10.30;47.60;;;;;;5111923;28;20090;-64
2021/04/04 01:40:42;;;;;;;26.85;6.68;;;10.30;47.40;;;;;;5092855;28;20047;-65
2021/04/04 01:43:10;;;;;;;17.83;6.97;;;;;;;;;;5100726;28;20418;-67
2021/04/04 01:45:37;;;;;;;26.80;7.28;;;;;;;;;;5104658;28;20090;-68
2021/04/04 01:48:05;;;;;;;24.23;6.43;;;10.30;47.70;;;;;;5108176;28;20071;-67
2021/04/04 01:50:32;;;;;;;22.27;5.32;;;;;;;;;;5098093;28;20051;-66
2021/04/04 01:53:00;;;;;;;25.08;6.45;;;10.40;47.50;;;;;;5092327;28;20548;-67
2021/04/04 01:55:27;;;;;;;20.05;5.75;;;;;;;;;;5114291;28;20490;-67
2021/04/04 01:57:55;;;;;;;27.65;6.90;;;;;;;;;;5108392;28;20060;-66
2021/04/04 02:00:25;;;;;;;22.33;6.47;;;10.30;47.60;;;;;;5095689;28;20086;-67
2021/04/04 02:02:53;;;;;;;27.70;6.25;;;10.10;48.30;;;;;;5114340;28;20043;-67
2021/04/04 02:05:20;;;;;;;29.35;6.18;;;;;;;;;;5112104;28;20048;-66
2021/04/04 02:07:50;;;;;;;31.58;6.43;;;10.20;48.30;;;;;;5102849;28;20051;-66
2021/04/04 02:10:23;;;;;;;20.45;6.35;;;10.40;48.10;;;;;;5076545;28;20486;-66
2021/04/04 02:13:06;;;;;;;19.75;6.88;;;10.50;47.40;;;;;;5098094;28;20050;-66
2021/04/04 02:15:33;;;;;;;27.83;7.35;;;;;;;;;;5113662;28;20962;-66
2021/04/04 02:18:01;;;;;;;25.00;6.80;;;10.70;47.00;;;;;;5102866;28;20063;-67
2021/04/04 02:20:31;;;;;;;24.58;6.90;;;10.70;47.10;;;;;;5091749;28;20036;-68
2021/04/04 02:23:03;;;;;;;23.27;6.90;;;10.70;47.00;;;;;;5088666;28;20391;-67
2021/04/04 02:25:30;;;;;;;28.75;6.65;;;;;;;;;;5109526;28;20062;-67
2021/04/04 02:27:58;;;;;;;14.15;5.72;;;;;;;;;;5113808;28;20109;-67
2021/04/04 02:30:25;;;;;;;22.90;6.93;;;;;;;;;;5095535;28;20494;-66
2021/04/04 02:33:00;;;;;;;20.08;6.20;;;10.50;48.10;;;;;;5110445;28;20043;-67
2021/04/04 02:35:32;;;;;;;23.48;6.15;;;10.70;47.60;;;;;;5113166;28;20407;-67
2021/04/04 02:38:06;;;;;;;30.48;7.85;;;10.70;47.40;;;;;;5114053;28;20038;-66
2021/04/04 02:40:35;;;;;;;21.15;5.43;;;10.50;47.90;;;;;;5115281;28;20043;-66
2021/04/04 02:43:03;;;;;;;19.20;6.20;;;;;;;;;;5114903;28;20047;-66
2021/04/04 02:45:30;;;;;;;19.50;5.70;;;;;;;;;;5113720;28;20059;-67
2021/04/04 02:48:03;;;;;;;24.48;6.15;;;10.60;48.00;;;;;;5113463;28;20054;-66
2021/04/04 02:50:31;;;;;;;14.57;5.45;;;10.80;47.50;;;;;;5093118;28;20044;-67
2021/04/04 02:53:00;;;;;;;19.45;5.20;;;10.80;47.40;;;;;;5099572;28;20067;-66
2021/04/04 02:55:34;;;;;;;20.15;5.57;;;10.70;47.60;;;;;;5110647;28;20047;-66
2021/04/04 02:58:04;;;;;;;29.23;5.60;;;10.70;47.70;;;;;;5095920;28;20039;-68
2021/04/04 03:00:32;;;;;;;22.33;7.38;;;;;;;;;;5113087;28;20096;-66
2021/04/04 03:03:01;;;;;;;24.35;5.68;;;10.60;48.10;;;;;;5112870;28;20047;-68
2021/04/04 03:05:28;;;;;;;23.70;5.85;;;;;;;;;;5112639;28;20101;-66
2021/04/04 03:07:57;;;;;;;24.65;5.68;;;10.80;47.70;;;;;;5106586;28;20122;-65
2021/04/04 03:10:24;;;;;;;15.25;5.15;;;;;;;;;;5097182;28;20047;-67
2021/04/04 03:12:51;;;;;;;25.00;5.55;;;11.00;47.40;;;;;;5108536;28;20051;-66
2021/04/04 03:15:19;;;;;;;18.15;5.20;;;11.00;47.10;;;;;;5103379;28;20086;-67
2021/04/04 03:17:49;;;;;;;23.42;6.18;;;11.00;47.10;;;;;;5107570;28;20051;-67
2021/04/04 03:20:17;;;;;;;18.92;5.13;;;11.10;47.20;;;;;;5093754;28;20054;-66
2021/04/04 03:22:45;;;;;;;17.42;5.60;;;11.10;47.00;;;;;;5091847;28;20044;-67
2021/04/04 03:25:13;;;;;;;18.73;5.18;;;11.30;46.70;;;;;;5112125;28;20057;-68
2021/04/04 03:27:45;;;;;;;15.30;5.50;;;11.50;46.50;;;;;;5098793;28;20089;-66
2021/04/04 03:33:05;;;;;;;27.60;5.32;;;11.60;46.00;;;;;;5100999;28;20062;-66
2021/04/04 03:35:33;;;;;;;16.38;5.40;;;11.70;45.70;;;;;;5080590;28;20458;-66
2021/04/04 03:38:03;;;;;;;18.08;5.20;;;11.70;45.70;;;;;;5112168;28;20154;-68
2021/04/04 03:40:30;;;;;;;22.80;5.82;;;11.80;45.50;;;;;;5112155;28;20048;-68
2021/04/04 03:42:59;;;;;;;22.27;5.88;;;11.80;45.30;;;;;;5102572;28;20085;-66
2021/04/04 03:45:26;;;;;;;20.83;5.60;;;;;;;;;;5108285;28;20051;-65
2021/04/04 03:47:54;;;;;;;20.50;4.97;;;;;;;;;;5105348;28;20119;-68
2021/04/04 03:50:22;;;;;;;17.27;6.32;;;11.90;45.00;;;;;;5100361;28;20052;-66
2021/04/04 03:52:50;;;;;;;15.15;4.90;;;11.80;44.90;;;;;;5089705;28;20047;-68
2021/04/04 03:55:21;;;;;;;16.73;5.47;;;11.90;45.20;;;;;;5091331;28;20040;-67
2021/04/04 03:57:49;;;;;;;21.38;5.18;;;12.00;45.20;;;;;;5106812;28;20094;-66
2021/04/04 04:00:21;;;;;;;23.90;5.47;;;11.90;44.70;;;;;;5104903;28;20074;-65
2021/04/04 04:02:51;;;;;;;22.02;4.60;;;11.80;45.10;;;;;;5105032;28;20040;-67
2021/04/04 04:05:24;;;;;;;26.80;5.57;;;11.70;45.30;;;;;;5104713;28;20127;-67
2021/04/04 04:07:54;;;;;;;23.40;5.30;;;11.80;45.40;;;;;;5105903;28;20126;-66
2021/04/04 04:10:21;;;;;;;18.00;5.28;;;;;;;;;;5111878;28;20039;-66
2021/04/04 04:12:49;;;;;;;27.02;5.88;;;11.90;45.40;;;;;;5097784;28;20124;-69
2021/04/04 04:15:17;;;;;;;26.33;5.68;;;;;;;;;;5111623;28;20044;-67
2021/04/04 04:17:47;;;;;;;19.15;5.38;;;12.00;45.20;;;;;;5111126;28;20085;-68
2021/04/04 04:20:15;;;;;;;24.45;5.55;;;11.90;45.40;;;;;;5108974;28;20035;-68
2021/04/04 04:22:42;;;;;;;19.75;5.22;;;;;;;;;;5093328;28;20478;-68
2021/04/04 04:25:11;;;;;;;15.73;5.00;;;11.90;45.30;;;;;;5087841;28;20062;-68
2021/04/04 04:27:40;;;;;;;17.80;5.20;;;12.00;45.50;;;;;;5094156;28;20048;-68
2021/04/04 04:30:08;;;;;;;27.77;6.25;;;12.00;45.50;;;;;;5111915;28;20044;-68
2021/04/04 04:32:38;;;;;;;24.50;5.57;;;11.90;45.60;;;;;;5092972;28;20048;-65
2021/04/04 04:35:06;;;;;;;17.67;5.15;;;11.90;45.60;;;;;;5111685;28;20455;-66
2021/04/04 04:37:34;;;;;;;15.80;5.00;;;11.90;45.70;;;;;;5099364;28;20093;-65
2021/04/04 04:40:10;;;;;;;19.65;4.93;;;11.50;45.50;;;;;;5089885;28;20567;-65
2021/04/04 04:42:40;;;;;;;27.40;5.70;;;11.50;46.00;;;;;;5097521;28;20489;-68
2021/04/04 04:45:15;;;;;;;18.27;5.72;;;11.20;46.60;;;;;;5111265;28;20051;-67
2021/04/04 04:47:43;;;;;;;25.27;5.65;;;;;;;;;;5111608;28;20048;-67
2021/04/04 04:50:10;;;;;;;26.95;5.18;;;;;;;;;;5077686;28;20057;-66
2021/04/04 04:52:37;;;;;;;16.52;5.57;;;;;;;;;;5105883;28;20093;-67
2021/04/04 04:55:07;;;;;;;13.73;4.65;;;10.90;48.00;;;;;;5087412;28;20037;-67
2021/04/04 04:57:35;;;;;;;12.20;4.85;;;11.10;47.70;;;;;;5091419;28;20059;-65
2021/04/04 05:00:06;;;;;;;17.60;5.25;;;11.20;47.40;;;;;;5090936;28;20044;-67
2021/04/04 05:02:33;;;;;;;20.73;6.03;;;;;;;;;;5098954;28;20035;-66
2021/04/04 05:05:01;;;;;;;26.60;5.80;;;11.10;47.90;;;;;;5093783;28;20053;-67
2021/04/04 05:07:31;;;;;;;18.88;5.57;;;11.30;47.80;;;;;;5096998;28;20055;-66
2021/04/04 05:09:57;;;;;;;21.13;4.70;;;;;;;;;;5088275;28;20350;-66
2021/04/04 05:12:26;;;;;;;21.85;5.28;;;11.60;47.10;;;;;;5062335;28;20044;-66
2021/04/04 05:14:53;;;;;;;25.27;5.32;;;11.60;46.60;;;;;;5077753;28;20058;-70
2021/04/04 05:17:21;;;;;;;18.42;5.20;;;;;;;;;;5097951;28;20032;-68
2021/04/04 05:19:49;;;;;;;24.73;5.95;;;11.50;47.10;;;;;;5072309;28;20044;-66
2021/04/04 05:22:16;;;;;;;21.48;4.75;;;;;;;;;;5097488;28;20040;-66
2021/04/04 05:24:44;;;;;;;16.38;4.78;;;;;;;;;;5082998;28;20383;-67
2021/04/04 05:27:11;;;;;;;17.83;5.13;;;;;;;;;;5069913;28;20055;-64
2021/04/04 05:29:38;;;;;;;23.05;4.80;;;;;;;;;;5091001;28;20043;-66
2021/04/04 05:32:10;;;;;;;16.40;5.93;;;11.10;48.00;;;;;;5092843;28;20070;-66
2021/04/04 05:34:39;;;;;;;23.38;6.28;;;11.10;48.20;;;;;;5101249;28;20051;-67
2021/04/04 05:37:08;;;;;;;22.70;4.80;;;11.20;48.20;;;;;;5101384;28;20138;-66
2021/04/04 05:39:38;;;;;;;25.15;5.15;;;11.30;47.80;;;;;;5092194;28;20039;-68
2021/04/04 05:42:08;;;;;;;15.93;5.28;;;11.40;47.40;;;;;;5097180;28;20035;-64
2021/04/04 05:44:57;;;;;;;18.85;4.85;;;11.50;47.40;;;;;;5089028;28;20129;-66
2021/04/04 05:47:41;;;;;;;20.42;4.75;;;11.60;47.30;;;;;;5095575;28;20043;-67
2021/04/04 05:50:17;;;;;;;19.17;5.72;;;11.70;47.20;;;;;;5096219;28;20075;-69
2021/04/04 05:53:21;;;;;;;22.58;5.43;;;11.80;47.10;;;;;;5093725;28;20456;-66
2021/04/04 05:55:48;;;;;;;20.25;5.25;;;;;;;;;;5096999;28;20066;-66
2021/04/04 05:58:19;;;;;;;32.70;5.85;;;11.90;46.80;;;;;;5084479;28;20051;-66
2021/04/04 06:00:48;;;;;;;21.73;5.10;;;12.00;46.80;;;;;;5091700;28;20058;-67
2021/04/04 06:03:42;;;;;;;17.98;5.60;;;12.00;46.60;;;;;;5103624;28;20043;-66
2021/04/04 06:06:47;;;;;;;17.50;5.28;;;12.00;47.00;;;;;;5108144;28;20401;-69
2021/04/04 06:09:34;;;;;;;32.10;7.15;;;12.00;47.50;;;;;;5102881;28;20042;-69
2021/04/04 06:12:25;;;;;;;24.58;6.38;;;11.90;47.70;;;;;;5100846;28;20055;-67
2021/04/04 06:15:15;;;;;;;20.92;5.60;;;11.90;47.80;;;;;;5085638;28;20044;-66
2021/04/04 06:17:52;;;;;;;23.42;5.70;;;11.90;48.10;;;;;;5096611;28;20080;-66
2021/04/04 06:20:33;;;;;;;22.20;5.30;;;11.90;48.00;;;;;;5073699;28;20044;-67
2021/04/04 06:23:17;;;;;;;24.13;5.88;;;12.00;47.70;;;;;;5089865;28;20060;-67
2021/04/04 06:25:53;;;;;;;20.83;6.00;;;12.10;48.00;;;;;;5096264;28;20483;-68
2021/04/04 06:28:38;;;;;;;25.20;6.57;;;12.00;47.90;;;;;;5058165;28;20090;-67
2021/04/04 06:31:36;;;;;;;18.75;6.63;;;12.00;48.30;;;;;;5092377;28;20052;-67
2021/04/04 06:34:11;;;;;;;22.50;6.38;;;11.90;48.40;;;;;;5103173;28;20048;-67
2021/04/04 06:36:59;;;;;;;23.50;6.25;;;11.70;49.00;;;;;;5096833;28;20059;-67
2021/04/04 06:39:31;;;;;;;22.10;6.57;;;;;;;;;;5078531;28;20055;-68
2021/04/04 06:42:10;;;;;;;21.52;6.72;;;11.70;49.20;;;;;;5100831;28;20063;-66
2021/04/04 06:44:48;;;;;;;21.98;7.20;;;11.80;49.00;;;;;;5111700;28;20040;-63
2021/04/04 06:47:27;;;;;;;21.77;5.82;;;11.80;48.70;;;;;;5093502;28;20040;-66
2021/04/04 06:50:06;;;;;;;22.95;6.00;;;11.80;48.70;;;;;;5096729;28;20075;-67
2021/04/04 06:52:36;;;;;;;19.90;5.75;;;11.80;48.70;;;;;;5081524;28;20044;-67
2021/04/04 06:55:03;;;;;;;20.02;5.80;;;;;;;;;;5101536;28;20541;-65
2021/04/04 06:57:52;;;;;;;14.15;4.63;;;11.90;48.00;;;;;;5084901;28;20044;-68
2021/04/04 07:00:43;;;;;;;18.88;5.55;;;12.00;46.90;;;;;;5088110;28;20048;-67
2021/04/04 07:03:17;;;;;;;15.60;5.10;;;11.90;47.60;;;;;;5086592;28;20068;-68
2021/04/04 07:05:56;;;;;;;17.73;5.95;;;11.80;46.90;;;;;;5091780;28;20056;-66
2021/04/04 07:08:26;;;;;;;17.10;4.30;;;;;;;;;;5099110;28;20048;-67
2021/04/04 07:11:17;;;;;;;19.92;4.90;;;11.80;46.30;;;;;;5084981;28;20084;-65
2021/04/04 07:13:51;;;;;;;20.52;4.88;;;11.70;46.50;;;;;;5085615;28;20505;-66
2021/04/04 07:16:18;;;;;;;13.50;4.30;;;;;;;;;;5065619;28;20056;-67
2021/04/04 07:19:09;;;;;;;8.15;3.90;;;11.50;47.40;;;;;;5090393;28;20048;-67
2021/04/04 07:22:14;;;;;;;19.58;4.60;;;11.50;47.90;;;;;;5092727;28;20040;-67
2021/04/04 07:24:41;;;;;;;17.02;5.32;;;;;;;;;;5091050;28;20055;-67
2021/04/04 07:27:15;;;;;;;12.70;4.32;;;11.50;47.50;;;;;;5072496;28;20040;-65
2021/04/04 07:30:30;;;;;;;18.98;4.88;;;11.50;47.60;;;;;;5086623;28;20052;-66
2021/04/04 07:33:50;;;;;;;10.43;4.57;;;11.30;47.50;;;;;;5093077;28;20044;-64
2021/04/04 07:36:44;;;;;;;15.32;4.32;;;11.40;47.50;;;;;;4984073;28;20066;-65
2021/04/04 07:39:32;;;;;;;15.75;4.80;;;11.40;48.20;;;;;;4983311;28;20572;-65
2021/04/04 07:41:59;;;;;;;16.08;4.28;;;;;;;;;;4981437;28;20409;-67
2021/04/04 07:44:35;;;;;;;11.93;4.53;;;11.30;48.20;;;;;;4983567;28;20054;-67
2021/04/04 07:47:12;;;;;;;36.85;7.57;;;11.10;48.50;;;;;;4987550;28;20058;-65
2021/04/04 07:49:45;;;;;;;23.25;4.93;;;11.30;48.70;;;;;;4979004;28;20424;-68
2021/04/04 07:52:21;;;;;;;25.95;4.75;;;11.40;47.90;;;;;;4980714;28;20932;-66
2021/04/04 07:55:01;;;;;;;14.38;5.47;;;11.40;47.70;;;;;;4970213;28;20066;-66
2021/04/04 07:57:50;;;;;;;17.10;4.60;;;11.40;48.10;;;;;;4963261;28;20533;-66
2021/04/04 08:00:19;;;;;;;14.65;4.10;;;11.40;47.40;;;;;;4975802;28;20058;-66
2021/04/04 08:02:57;;;;;;;17.35;4.50;;;11.60;46.80;;;;;;4974105;28;20612;-67
2021/04/04 08:05:28;;;;;;;12.85;4.40;;;11.50;46.60;;;;;;4977594;28;20413;-68
2021/04/04 08:08:02;;;;;;;17.45;4.85;;;11.40;47.00;;;;;;4984172;28;20153;-69
2021/04/04 08:10:32;;;;;;;20.63;5.18;;;;;;;;;;4983269;28;20513;-67
2021/04/04 08:13:10;;;;;;;20.65;5.25;;;11.40;47.80;;;;;;5081097;28;20450;-64
2021/04/04 08:15:46;;;;;;;16.05;4.55;;;;;;;;;;5095127;28;20044;-67
2021/04/04 08:18:14;;;;;;;18.60;4.70;;;;;;;;;;5084045;28;20393;-66
2021/04/04 08:20:49;;;;;;;16.85;4.63;;;11.50;47.30;;;;;;5104026;28;20067;-67
2021/04/04 08:23:34;;;;;;;19.55;5.05;;;11.50;47.50;;;;;;5083339;28;20485;-65
2021/04/04 08:26:02;;;;;;;10.75;4.35;;;;;;;;;;5094500;28;20108;-67
2021/04/04 08:28:42;;;;;;;10.90;3.72;;;11.50;46.60;;;;;;5089651;28;20936;-67
2021/04/04 08:31:26;;;;;;;14.18;4.13;;;11.60;46.90;;;;;;5091884;28;20448;-64
2021/04/04 08:34:17;;;;;;;15.85;3.90;;;11.60;46.80;;;;;;5087017;28;20054;-67
2021/04/04 08:36:50;;;;;;;13.68;4.20;;;11.60;46.80;;;;;;5102613;28;20112;-68
2021/04/04 08:39:21;;;;;;;15.90;4.65;;;11.60;46.10;;;;;;5096920;28;20115;-66
2021/04/04 08:41:48;;;;;;;15.27;4.35;;;11.60;46.70;;;;;;5081526;28;20173;-66
2021/04/04 08:44:24;;;;;;;12.30;4.32;;;11.40;46.70;;;;;;5091943;28;20036;-66
2021/04/04 08:47:13;;;;;;;14.63;4.55;;;11.50;47.00;;;;;;5095720;28;20130;-64
2021/04/04 08:49:41;;;;;;;14.25;4.45;;;;;;;;;;5089435;28;20055;-66
2021/04/04 08:52:17;;;;;;;14.90;4.30;;;11.60;46.30;;;;;;5098509;28;20066;-66
2021/04/04 08:54:54;;;;;;;17.33;5.22;;;11.50;46.10;;;;;;5084633;28;20044;-65
2021/04/04 08:57:29;;;;;;;16.75;4.47;;;11.50;46.60;;;;;;5094721;28;20043;-66
2021/04/04 08:59:56;;;;;;;22.60;4.87;;;;;;;;;;5112785;28;20104;-66
2021/04/04 09:02:26;;;;;;;18.25;4.85;;;11.80;46.00;;;;;;5074396;28;20067;-65
2021/04/04 09:05:01;;;;;;;16.00;4.80;;;11.80;46.20;;;;;;5101631;28;20084;-66
2021/04/04 09:07:29;;;;;;;15.85;5.03;;;;;;;;;;5109798;28;20050;-66
2021/04/04 09:09:56;;;;;;;14.93;5.13;;;;;;;;;;5106222;28;20446;-67
2021/04/04 09:12:31;;;;;;;12.60;4.90;;;11.70;47.20;;;;;;5106072;28;20455;-68
2021/04/04 09:15:03;;;;;;;13.63;5.03;;;11.50;46.90;;;;;;5097851;28;20043;-67
2021/04/04 09:17:30;;;;;;;12.63;4.93;;;;;;;;;;5108259;28;20083;-68
2021/04/04 09:20:01;;;;;;;15.32;5.32;;;11.50;47.20;;;;;;5105806;28;20079;-67
2021/04/04 09:22:29;;;;;;;14.88;5.28;;;11.50;47.20;;;;;;5108541;28;20112;-65
2021/04/04 09:25:23;;;;;;;20.13;5.15;;;11.70;47.00;;;;;;5086531;28;20040;-68
2021/04/04 09:27:51;;;;;;;15.48;5.40;;;11.80;46.30;;;;;;5085524;28;20099;-67
2021/04/04 09:30:23;;;;;;;17.10;5.78;;;11.60;46.70;;;;;;5106892;28;20055;-69
2021/04/04 09:32:53;;;;;;;16.70;5.32;;;11.60;46.60;;;;;;5107634;28;20047;-69
2021/04/04 09:35:22;;;;;;;16.02;5.47;;;11.70;46.90;;;;;;5088079;28;20055;-67
2021/04/04 09:37:50;;;;;;;17.33;7.03;;;11.90;46.50;;;;;;5108509;28;20462;-69
2021/04/04 09:40:19;;;;;;;15.85;5.55;;;11.90;45.80;;;;;;5093475;28;20501;-65
2021/04/04 09:42:46;;;;;;;15.20;5.35;;;12.00;45.80;;;;;;5092872;28;20497;-67
2021/04/04 09:45:22;;;;;;;17.52;5.53;;;12.00;45.10;;;;;;5092967;28;20052;-67
2021/04/04 09:47:50;;;;;;;17.20;5.25;;;11.90;45.60;;;;;;5094076;28;20047;-67
2021/04/04 09:50:29;;;;;;;15.75;5.82;;;11.80;45.90;;;;;;5087504;28;20044;-67
2021/04/04 09:52:57;;;;;;;15.88;5.32;;;12.00;45.80;;;;;;5092397;28;20182;-66
2021/04/04 09:55:26;;;;;;;14.52;5.85;;;12.00;45.80;;;;;;5092331;28;20445;-67
2021/04/04 09:58:00;;;;;;;11.35;5.22;;;12.10;45.40;;;;;;5093024;28;20036;-68
2021/04/04 10:00:44;;;;;;;18.33;5.78;;;12.00;45.80;;;;;;5091825;28;20036;-66
2021/04/04 10:03:17;;;;;;;22.48;6.30;;;12.10;45.50;;;;;;5092440;28;20048;-67
2021/04/04 10:05:46;;;;;;;14.73;5.75;;;12.10;44.90;;;;;;5091530;28;20052;-65
2021/04/04 10:08:26;;;;;;;21.73;6.35;;;12.00;45.40;;;;;;5093227;28;20501;-66
2021/04/04 10:10:57;;;;;;;14.18;5.95;;;12.00;45.50;;;;;;5091919;28;20123;-65
2021/04/04 10:13:29;;;;;;;13.05;5.78;;;12.00;45.10;;;;;;5093124;28;20047;-65
2021/04/04 10:15:57;;;;;;;17.75;6.50;;;12.00;45.60;;;;;;5072889;28;20052;-66
2021/04/04 10:18:26;;;;;;;17.05;6.80;;;12.00;45.40;;;;;;5081870;28;20047;-68
2021/04/04 10:20:58;;;;;;;20.83;7.55;;;12.20;45.00;;;;;;5093836;28;20083;-66
2021/04/04 10:23:33;;;;;;;17.85;6.50;;;12.20;44.60;;;;;;5113143;28;20040;-65
2021/04/04 10:26:06;;;;;;;17.10;7.45;;;12.30;44.70;;;;;;5113333;28;20051;-65
2021/04/04 10:28:48;;;;;;;20.35;6.80;;;12.30;45.10;;;;;;5103461;28;20097;-66
2021/04/04 10:31:16;;;;;;;20.77;6.63;;;12.30;45.00;;;;;;5109165;28;20054;-67
2021/04/04 10:33:43;;;;;;;14.02;6.68;;;;;;;;;;5112871;28;20040;-66
2021/04/04 10:36:25;;;;;;;20.95;7.13;;;12.30;44.80;;;;;;5088203;28;20115;-68
2021/04/04 10:38:52;;;;;;;21.13;6.90;;;12.20;44.80;;;;;;5113419;28;20057;-66
2021/04/04 10:41:30;;;;;;;21.40;6.35;;;12.30;44.50;;;;;;5113482;28;20506;-68
2021/04/04 10:43:58;;;;;;;12.40;6.18;;;12.40;44.60;;;;;;5112856;28;20043;-65
2021/04/04 10:46:27;;;;;;;28.17;7.32;;;12.40;44.50;;;;;;5094802;28;20051;-66
2021/04/04 10:48:58;;;;;;;20.63;8.02;;;12.40;44.60;;;;;;5093933;28;20035;-67
2021/04/04 10:51:27;;;;;;;19.52;7.03;;;12.40;44.50;;;;;;5112524;28;20040;-65
2021/04/04 10:53:54;;;;;;;22.63;7.38;;;12.20;44.40;;;;;;5109632;28;20044;-66
2021/04/04 10:56:21;;;;;;;13.98;6.78;;;;;;;;;;5101510;28;20056;-68
2021/04/04 10:58:50;;;;;;;22.75;6.80;;;;;;;;;;5112463;28;20043;-66
2021/04/04 11:01:18;;;;;;;20.50;7.10;;;;;;;;;;5112973;28;20031;-67
2021/04/04 11:03:45;;;;;;;23.55;8.48;;;;;;;;;;5094358;28;20401;-66
2021/04/04 11:06:12;;;;;;;19.80;8.40;;;12.40;43.50;;;;;;5106204;28;20102;-65
2021/04/04 11:08:41;;;;;;;20.90;9.32;;;12.50;44.30;;;;;;5105109;28;20070;-67
2021/04/04 11:11:11;;;;;;;16.95;7.90;;;12.70;43.30;;;;;;5111301;28;20043;-68
2021/04/04 11:13:41;;;;;;;20.40;8.77;;;12.70;43.70;;;;;;5111615;28;20044;-68
2021/04/04 11:16:10;;;;;;;22.45;9.75;;;12.50;43.80;;;;;;5112394;28;20043;-65
2021/04/04 11:18:54;;;;;;;15.85;9.77;;;12.40;43.50;;;;;;5079954;28;20044;-67
2021/04/04 11:21:30;;;;;;;17.70;9.80;;;12.40;44.00;;;;;;5108323;28;20044;-67
2021/04/04 11:23:57;;;;;;;18.67;9.70;;;;;;;;;;5112458;28;20059;-67
2021/04/04 11:26:37;;;;;;;21.02;9.40;;;12.30;44.40;;;;;;5112171;28;20051;-68
2021/04/04 11:29:14;;;;;;;18.40;10.30;;;12.20;45.00;;;;;;5111958;28;20039;-66
2021/04/04 11:31:43;;;;;;;18.50;10.25;;;12.10;45.20;;;;;;5093840;28;20059;-67
2021/04/04 11:34:34;;;;;;;24.30;10.43;;;12.30;45.20;;;;;;5111841;28;20035;-67
2021/04/04 11:37:12;;;;;;;21.92;10.30;;;12.50;45.30;;;;;;5091243;28;20080;-64
2021/04/04 11:39:40;;;;;;;21.60;10.07;;;12.60;44.10;;;;;;5098851;28;20343;-67
2021/04/04 11:42:18;;;;;;;17.35;9.35;;;12.50;44.50;;;;;;5109659;28;20035;-67
2021/04/04 11:44:52;;;;;;;22.27;10.32;;;12.70;44.70;;;;;;5108525;28;20047;-68
2021/04/04 11:47:19;;;;;;;19.23;9.82;;;;;;;;;;5106373;28;20040;-65
2021/04/04 11:49:48;;;;;;;20.10;9.80;;;12.80;43.90;;;;;;5096105;28;20040;-66
2021/04/04 11:52:18;;;;;;;20.33;9.25;;;12.90;44.70;;;;;;5092813;28;20404;-68
2021/04/04 11:54:45;;;;;;;21.38;9.63;;;;;;;;;;5111782;28;20036;-67
2021/04/04 11:57:27;;;;;;;27.48;9.95;;;12.90;43.50;;;;;;5109121;28;20568;-68
2021/04/04 12:00:12;;;;;;;27.02;10.10;;;12.80;44.10;;;;;;5100669;28;20043;-66
2021/04/04 12:02:47;;;;;;;23.55;10.75;;;13.00;43.80;;;;;;5106329;28;20047;-65
2021/04/04 12:05:15;;;;;;;23.05;10.32;;;13.00;43.90;;;;;;5103706;28;20039;-69
2021/04/04 12:07:47;;;;;;;24.63;10.80;;;12.80;44.50;;;;;;5104922;28;20032;-67
2021/04/04 12:10:16;;;;;;;21.75;10.45;;;12.60;45.50;;;;;;5102719;28;20096;-66
2021/04/04 12:12:43;;;;;;;23.17;10.43;;;;;;;;;;5097116;28;20055;-68
2021/04/04 12:15:16;;;;;;;27.27;10.23;;;12.50;46.10;;;;;;5093479;28;20051;-65
2021/04/04 12:17:51;;;;;;;22.17;10.30;;;12.50;45.80;;;;;;5108430;28;20044;-67
2021/04/04 12:20:24;;;;;;;22.00;9.32;;;12.50;45.50;;;;;;5093923;28;20055;-67
2021/04/04 12:22:51;;;;;;;23.77;9.20;;;;;;;;;;5111422;28;20047;-65
2021/04/04 12:25:18;;;;;;;22.67;8.70;;;;;;;;;;5102994;28;20140;-67
2021/04/04 12:27:47;;;;;;;22.77;9.48;;;12.30;45.60;;;;;;5111150;28;20043;-67
2021/04/04 12:30:28;;;;;;;21.80;9.10;;;12.60;45.10;;;;;;5115476;28;20040;-67
2021/04/04 12:33:17;;;;;;;20.42;8.45;;;12.70;44.40;;;;;;5113367;28;20043;-66
2021/04/04 12:35:46;;;;;;;16.90;8.77;;;12.70;44.50;;;;;;5088263;28;20046;-65
2021/04/04 12:38:24;;;;;;;18.65;8.05;;;12.50;44.30;;;;;;5099175;28;20093;-66
2021/04/04 12:40:52;;;;;;;30.05;8.00;;;12.70;44.10;;;;;;5090012;28;20100;-66
2021/04/04 12:43:19;;;;;;;20.35;7.60;;;;;;;;;;5112499;28;20040;-65
2021/04/04 12:45:46;;;;;;;16.73;6.70;;;;;;;;;;5087031;28;20052;-66
2021/04/04 12:48:21;;;;;;;15.80;7.15;;;12.70;43.20;;;;;;5098729;28;20036;-66
2021/04/04 12:50:56;;;;;;;17.73;7.13;;;12.80;43.20;;;;;;5115038;28;20035;-64
2021/04/04 12:53:26;;;;;;;18.98;7.35;;;13.00;42.60;;;;;;5102188;28;20075;-66
2021/04/04 12:55:53;;;;;;;20.08;6.90;;;12.90;42.70;;;;;;5114122;28;20074;-67
2021/04/04 12:58:20;;;;;;;15.45;7.15;;;;;;;;;;5070928;28;20047;-67
2021/04/04 13:00:48;;;;;;;18.52;7.63;;;13.30;42.60;;;;;;5079647;28;20064;-67
2021/04/04 13:03:16;;;;;;;22.50;7.15;;;13.20;42.70;;;;;;5114665;28;20070;-71
2021/04/04 13:05:51;;;;;;;20.75;7.93;;;13.30;43.30;;;;;;5114512;28;20039;-66
2021/04/04 13:08:29;;;;;;;17.02;6.75;;;13.40;41.70;;;;;;5083416;28;20052;-66
2021/04/04 13:10:59;;;;;;;17.88;7.32;;;13.40;42.30;;;;;;5108824;28;20043;-66
2021/04/04 13:13:32;;;;;;;19.48;7.35;;;13.30;42.10;;;;;;5113785;28;20035;-66
2021/04/04 13:16:00;;;;;;;18.45;5.88;;;;;;;;;;5114453;28;20079;-65
2021/04/04 13:18:41;;;;;;;16.85;7.13;;;13.10;43.30;;;;;;5113980;28;20054;-65
2021/04/04 13:21:17;;;;;;;20.02;6.97;;;13.20;42.50;;;;;;5067547;28;20051;-66
2021/04/04 13:23:49;;;;;;;18.13;6.88;;;13.30;42.80;;;;;;5098695;28;20074;-65
2021/04/04 13:26:19;;;;;;;22.95;7.20;;;13.00;42.30;;;;;;5093661;28;20052;-66
2021/04/04 13:28:59;;;;;;;20.13;5.60;;;13.10;42.50;;;;;;5093441;28;20036;-66
2021/04/04 13:31:27;;;;;;;17.77;6.93;;;13.20;43.30;;;;;;5093437;28;20059;-69
2021/04/04 13:34:14;;;;;;;21.50;7.25;;;13.20;42.70;;;;;;5089719;28;20047;-69